WetterOnline ( https://www.wetteronline.de )

Wetter aktuell Albstadt

Aktuelles Wetter: Messstetten (900m)

6-stündlich | Neueste Meldungen
Ortszeit Temperatur Wetter
Mo, 24.06. 14:00 21.3° C fast wolkenlos
Mo, 24.06. 8:00 15.4° C wolkenlos
Mo, 24.06. 2:00 13.2° C wolkenlos
So, 23.06. 20:00 15.8° C wolkig
So, 23.06. 14:00 14.0° C bedeckt
So, 23.06. 8:00 10.8° C bedeckt
So, 23.06. 2:00 9.7° C leichter Regen
Sa, 22.06. 20:00 11.0° C bedeckt
Ortszeit Temperatur Wetter
Mo, 24.06. 19:00 19.8° C bewölkt
Mo, 24.06. 18:40 19.7° C bewölkt
Mo, 24.06. 18:30 20.6° C wolkig
Mo, 24.06. 18:20 20.6° C wolkig
Mo, 24.06. 18:10 20.4° C leicht bewölkt
Mo, 24.06. 18:00 19.5° C wolkig
Mo, 24.06. 17:50 19.5° C wolkig
Mo, 24.06. 17:30 20.8° C wolkig
Mo, 24.06. 17:00 21.0° C leicht bewölkt
Mo, 24.06. 16:30 20.5° C wolkig
Mo, 24.06. 16:00 20.3° C leicht bewölkt
Ortszeit Relative Feuchte Sichtweite
Mo, 24.06. 14:00 60% 50 km
Mo, 24.06. 8:00 83% 35 km
Mo, 24.06. 2:00 91% 30 km
So, 23.06. 20:00 82% 50 km
So, 23.06. 14:00 84% 40 km
So, 23.06. 8:00 92% 45 km
So, 23.06. 2:00 97% 19 km
Sa, 22.06. 20:00 92% 60 km
Ortszeit Relative Feuchte Sichtweite
Mo, 24.06. 19:00 60% 55 km
Mo, 24.06. 18:40 61% -
Mo, 24.06. 18:30 59% 50 km
Mo, 24.06. 18:20 59% -
Mo, 24.06. 18:10 59% -
Mo, 24.06. 18:00 62% 45 km
Mo, 24.06. 17:50 62% -
Mo, 24.06. 17:30 59% 45 km
Mo, 24.06. 17:00 60% 65 km
Mo, 24.06. 16:30 63% 55 km
Mo, 24.06. 16:00 57% 60 km
Ortszeit Niederschlagsmenge Niederschlagsart
Mo, 24.06. 14:00 0.0 l/m2 in 6 Std. -
Mo, 24.06. 8:00 0.1 l/m2 in 12 Std. -
Mo, 24.06. 2:00 0.1 l/m2 in 6 Std. Regen
So, 23.06. 20:00 0.1 l/m2 in 12 Std. Regen
So, 23.06. 14:00 0.1 l/m2 in 6 Std. Regen
So, 23.06. 8:00 0.6 l/m2 in 12 Std. Regen
So, 23.06. 2:00 0.5 l/m2 in 6 Std. Regen
Sa, 22.06. 20:00 10 l/m2 in 12 Std. Regen
Ortszeit Niederschlagsmenge Niederschlagsart
Mo, 24.06. 19:00 0.0 l/m2 in 1 Std. -
Mo, 24.06. 18:40 keine Meldung -
Mo, 24.06. 18:30 0.0 l/m2 in 30 Min -
Mo, 24.06. 18:20 keine Meldung -
Mo, 24.06. 18:10 keine Meldung -
Mo, 24.06. 18:00 0.0 l/m2 in 1 Std. -
Mo, 24.06. 17:50 keine Meldung -
Mo, 24.06. 17:30 0.0 l/m2 in 30 Min -
Mo, 24.06. 17:00 0.0 l/m2 in 1 Std. -
Mo, 24.06. 16:30 0.0 l/m2 in 30 Min -
Mo, 24.06. 16:00 0.0 l/m2 in 1 Std. -
Ortszeit Stärke Spitze Richtung
km/h Bft. km/h Grad Sektor
Mo, 24.06. 14:00 26 4 41 80° O
Mo, 24.06. 8:00 19 3 31 80° O
Mo, 24.06. 2:00 7 2 18 60° NO
So, 23.06. 20:00 6 1 26 330° NW
So, 23.06. 14:00 7 2 18 60° NO
So, 23.06. 8:00 6 1 13 60° NO
So, 23.06. 2:00 0 0 18 - -
Sa, 22.06. 20:00 7 2 36 220° SW
Ortszeit Stärke Spitze Richtung
km/h Bft. km/h Grad Sektor
Mo, 24.06. 19:00 17 3 31 80° O
Mo, 24.06. 18:40 18 3 - 90° O
Mo, 24.06. 18:30 18 3 32 80° O
Mo, 24.06. 18:20 18 3 - 80° O
Mo, 24.06. 18:10 20 4 - 80° O
Mo, 24.06. 18:00 22 4 33 80° O
Mo, 24.06. 17:50 22 4 - 80° O
Mo, 24.06. 17:30 22 4 32 70° O
Mo, 24.06. 17:00 19 3 48 80° O
Mo, 24.06. 16:30 22 4 47 80° O
Mo, 24.06. 16:00 28 4 48 80° O
Ortszeit Untergrenze Bedeckung Gattung
total tief tief mittel hoch
Mo, 24.06. 14:00 1170 m 1/8 1/8 - - -
Mo, 24.06. 8:00 - 0/8 0/8 - - -
Mo, 24.06. 2:00 - 0/8 0/8 - - -
So, 23.06. 20:00 930 m 5/8 5/8 - - -
So, 23.06. 14:00 360 m 8/8 8/8 - - -
So, 23.06. 8:00 510 m 8/8 8/8 - - -
So, 23.06. 2:00 1800 m 7/8 7/8 - - -
Sa, 22.06. 20:00 210 m 8/8 8/8 - - -
Ortszeit Bedeckungsgrad in Achtel und Wolkenuntergrenze
Mo, 24.06. 19:00 2(1260m) 7(1500m)
Mo, 24.06. 18:40 7
Mo, 24.06. 18:30 5(1500m)
Mo, 24.06. 18:20 5(1500m)
Mo, 24.06. 18:10 3
Mo, 24.06. 18:00 5(1290m)
Mo, 24.06. 17:50 5(1290m)
Mo, 24.06. 17:30 3(1200m) 5(1500m)
Mo, 24.06. 17:00 2(1500m)
Mo, 24.06. 16:30 1(1110m) 6(1500m)
Mo, 24.06. 16:00 1(1200m) 3(1500m)
Ortszeit Stationsdruck (hPa) Tendenz (hPa in 3 Std.)
Mo, 24.06. 14:00 915 - 0,5
Mo, 24.06. 8:00 916 - 0,1
Mo, 24.06. 2:00 917 - 0,6
So, 23.06. 20:00 917 + 0,3
So, 23.06. 14:00 917 + 0,6
So, 23.06. 8:00 916 + 1,0
So, 23.06. 2:00 915 0,0
Sa, 22.06. 20:00 914 - 0,4
Ortszeit Stationsdruck (hPa) Tendenz (hPa in 3 Std.)
Mo, 24.06. 19:00 914 - 0,7
Mo, 24.06. 18:40 914 keine Meldung
Mo, 24.06. 18:30 914 - 0,7
Mo, 24.06. 18:20 914 keine Meldung
Mo, 24.06. 18:10 914 keine Meldung
Mo, 24.06. 18:00 914 - 0,8
Mo, 24.06. 17:50 914 keine Meldung
Mo, 24.06. 17:30 914 - 0,9
Mo, 24.06. 17:00 915 - 0,8
Mo, 24.06. 16:30 915 - 0,8
Mo, 24.06. 16:00 915 - 0,8
Ortszeit Schneehöhe (cm)
Mo, 24.06. 14:00 0
Mo, 24.06. 8:00 0
Mo, 24.06. 2:00 0
So, 23.06. 20:00 0
So, 23.06. 14:00 0
So, 23.06. 8:00 0
So, 23.06. 2:00 0
Sa, 22.06. 20:00 0
Ortszeit Schneehöhe (cm)
Mo, 24.06. 19:00 0
Mo, 24.06. 18:40 -
Mo, 24.06. 18:30 0
Mo, 24.06. 18:20 0
Mo, 24.06. 18:10 -
Mo, 24.06. 18:00 0
Mo, 24.06. 17:50 0
Mo, 24.06. 17:30 0
Mo, 24.06. 17:00 0
Mo, 24.06. 16:30 0
Mo, 24.06. 16:00 0
Link zu dieser Seite / Seite empfehlen

Das Wetter in ...